Time,TemperatureF,DewpointF,PressureIn,WindDirection,WindDirectionDegrees,WindSpeedMPH,WindSpeedGustMPH,Humidity,HourlyPrecipIn,Conditions,Clouds,dailyrainin,SoftwareType,DateUTC
2013-08-25 00:00:00,58.4,57.0,30.29,SSE,153,0.0,0.0,95,0.00,,SKC,0.00,VWS V14.01,2013-08-25 04:00:00,
2013-08-25 00:01:00,58.4,57.3,30.29,SSE,153,0.0,0.0,96,0.00,,SKC,0.00,VWS V14.01,2013-08-25 04:01:00,
2013-08-25 00:02:00,58.4,57.3,30.29,SSE,152,0.0,0.0,96,0.00,,SKC,0.00,VWS V14.01,2013-08-25 04:02:00,
2013-08-25 00:07:00,58.3,57.2,30.29,SSE,154,0.0,0.0,96,0.00,,SKC,0.00,VWS V14.01,2013-08-25 04:07:00,
2013-08-25 00:12:00,58.3,57.2,30.29,SSE,153,0.0,0.0,96,0.00,,SKC,0.00,VWS V14.01,2013-08-25 04:12:00,
2013-08-25 00:17:00,58.2,57.1,30.29,SSE,152,0.0,0.0,96,0.00,,SKC,0.00,VWS V14.01,2013-08-25 04:17:00,
2013-08-25 00:22:00,58.1,57.3,30.30,SSE,153,0.0,0.0,97,0.00,,SKC,0.00,VWS V14.01,2013-08-25 04:22:00,
2013-08-25 00:27:00,58.2,57.4,30.30,SSE,154,0.0,0.0,97,0.00,,SKC,0.00,VWS V14.01,2013-08-25 04:27:00,
2013-08-25 00:30:00,58.2,57.4,30.30,SSE,153,0.0,0.0,97,0.00,,SKC,0.00,VWS V14.01,2013-08-25 04:30:00,
2013-08-25 00:32:00,58.3,57.5,30.30,SSE,152,0.0,0.0,97,0.00,,SKC,0.00,VWS V14.01,2013-08-25 04:32:00,
2013-08-25 00:37:00,58.2,57.4,30.30,SSE,152,0.0,0.0,97,0.00,,SKC,0.00,VWS V14.01,2013-08-25 04:37:00,
2013-08-25 00:42:00,58.3,57.5,30.30,SSE,152,0.0,0.0,97,0.00,,SKC,0.00,VWS V14.01,2013-08-25 04:42:00,
2013-08-25 00:47:00,58.3,57.5,30.30,SSE,153,0.0,0.0,97,0.00,,SKC,0.00,VWS V14.01,2013-08-25 04:47:00,
2013-08-25 00:52:00,58.4,57.6,30.30,SSE,153,0.0,0.0,97,0.00,,SKC,0.00,VWS V14.01,2013-08-25 04:52:00,
2013-08-25 00:57:00,58.3,57.5,30.30,SSE,153,0.0,0.0,97,0.00,,SKC,0.00,VWS V14.01,2013-08-25 04:57:00,
2013-08-25 01:00:00,58.3,57.5,30.30,SSE,153,0.0,0.0,97,0.00,,SKC,0.00,VWS V14.01,2013-08-25 05:00:00,
2013-08-25 01:02:00,58.3,57.5,30.30,SSE,152,0.0,0.0,97,0.00,,SKC,0.00,VWS V14.01,2013-08-25 05:02:00,
2013-08-25 01:07:00,58.3,57.7,30.30,SSE,154,0.0,0.0,98,0.00,,SKC,0.00,VWS V14.01,2013-08-25 05:07:00,
2013-08-25 01:12:00,58.2,57.4,30.30,SSE,153,0.0,0.0,97,0.00,,SKC,0.00,VWS V14.01,2013-08-25 05:12:00,
2013-08-25 01:17:00,58.0,57.2,30.30,SSE,153,0.0,0.0,97,0.00,,SKC,0.00,VWS V14.01,2013-08-25 05:17:00,
2013-08-25 01:22:00,57.9,57.1,30.30,SSE,153,0.0,0.0,97,0.00,,SKC,0.00,VWS V14.01,2013-08-25 05:22:00,
2013-08-25 01:27:00,57.6,56.8,30.30,SSE,154,0.0,0.0,97,0.00,,SKC,0.00,VWS V14.01,2013-08-25 05:27:00,
2013-08-25 01:30:00,57.6,57.0,30.30,SSE,153,0.0,0.0,98,0.00,,SKC,0.00,VWS V14.01,2013-08-25 05:30:00,
2013-08-25 01:32:00,57.6,57.0,30.30,SSE,154,0.0,0.0,98,0.00,,SKC,0.00,VWS V14.01,2013-08-25 05:32:00,
2013-08-25 01:37:00,57.4,56.8,30.30,SSE,153,0.0,0.0,98,0.00,,SKC,0.00,VWS V14.01,2013-08-25 05:37:00,
2013-08-25 01:42:00,57.3,56.7,30.30,SSE,153,0.0,0.0,98,0.00,,SKC,0.00,VWS V14.01,2013-08-25 05:42:00,
2013-08-25 01:47:00,57.2,56.6,30.30,SSE,153,0.0,0.0,98,0.00,,SKC,0.00,VWS V14.01,2013-08-25 05:47:00,
2013-08-25 01:52:00,57.2,56.6,30.30,SSE,153,0.0,0.0,98,0.00,,SKC,0.00,VWS V14.01,2013-08-25 05:52:00,
2013-08-25 01:57:00,57.0,56.4,30.30,SSE,153,0.0,0.0,98,0.00,,SKC,0.00,VWS V14.01,2013-08-25 05:57:00,
2013-08-25 02:00:00,56.9,56.3,30.30,SSE,152,0.0,0.0,98,0.00,,SKC,0.00,VWS V14.01,2013-08-25 06:00:00,
2013-08-25 02:02:00,56.9,56.3,30.30,SSE,154,0.0,0.0,98,0.00,,SKC,0.00,VWS V14.01,2013-08-25 06:02:00,
2013-08-25 02:07:00,56.9,56.3,30.30,SSE,153,0.0,0.0,98,0.00,,SKC,0.00,VWS V14.01,2013-08-25 06:07:00,
2013-08-25 02:12:00,56.9,56.3,30.30,SSE,153,0.0,0.0,98,0.00,,SKC,0.00,VWS V14.01,2013-08-25 06:12:00,
2013-08-25 02:17:00,56.7,56.1,30.30,SSE,152,0.0,0.0,98,0.00,,SKC,0.00,VWS V14.01,2013-08-25 06:17:00,
2013-08-25 02:22:00,56.6,56.0,30.30,SSE,152,0.0,0.0,98,0.00,,SKC,0.00,VWS V14.01,2013-08-25 06:22:00,
2013-08-25 02:27:00,56.4,55.8,30.30,SSE,153,0.0,0.0,98,0.00,,SKC,0.00,VWS V14.01,2013-08-25 06:27:00,
2013-08-25 02:30:00,56.3,55.7,30.30,SSE,152,0.0,0.0,98,0.00,,SKC,0.00,VWS V14.01,2013-08-25 06:30:00,
2013-08-25 02:32:00,56.1,55.5,30.30,SSE,152,0.0,0.0,98,0.00,,SKC,0.00,VWS V14.01,2013-08-25 06:32:00,
2013-08-25 02:37:00,55.9,55.3,30.30,SSE,152,0.0,0.0,98,0.00,,SKC,0.00,VWS V14.01,2013-08-25 06:37:00,
2013-08-25 02:42:00,56.0,55.5,30.30,SSE,152,0.0,0.0,98,0.00,,SKC,0.00,VWS V14.01,2013-08-25 06:42:00,
2013-08-25 02:47:00,55.9,55.3,30.30,SSE,152,0.0,0.0,98,0.00,,SKC,0.00,VWS V14.01,2013-08-25 06:47:00,
2013-08-25 02:52:00,55.8,55.2,30.30,SSE,153,0.0,0.0,98,0.00,,SKC,0.00,VWS V14.01,2013-08-25 06:52:00,
2013-08-25 02:57:00,55.7,55.2,30.30,SSE,152,0.0,0.0,98,0.00,,SKC,0.00,VWS V14.01,2013-08-25 06:57:00,
2013-08-25 03:00:00,55.5,55.0,30.30,SSE,153,0.0,0.0,98,0.00,,SKC,0.00,VWS V14.01,2013-08-25 07:00:00,
2013-08-25 03:02:00,55.5,55.0,30.30,SSE,152,0.0,0.0,98,0.00,,SKC,0.00,VWS V14.01,2013-08-25 07:02:00,
2013-08-25 03:07:00,55.5,55.2,30.31,SSE,153,0.0,0.0,99,0.00,,SKC,0.00,VWS V14.01,2013-08-25 07:07:00,
2013-08-25 03:12:00,55.4,54.8,30.31,SSE,152,0.0,0.0,98,0.00,,SKC,0.00,VWS V14.01,2013-08-25 07:12:00,
2013-08-25 03:17:00,55.2,54.7,30.31,SSE,152,0.0,0.0,98,0.00,,SKC,0.00,VWS V14.01,2013-08-25 07:17:00,
2013-08-25 03:22:00,55.1,54.5,30.31,SSE,153,0.0,0.0,98,0.00,,SKC,0.00,VWS V14.01,2013-08-25 07:22:00,
2013-08-25 03:27:00,55.0,54.5,30.31,SSE,152,0.0,0.0,98,0.00,,SKC,0.00,VWS V14.01,2013-08-25 07:27:00,
2013-08-25 03:30:00,54.9,54.6,30.31,SSE,153,0.0,0.0,99,0.00,,SKC,0.00,VWS V14.01,2013-08-25 07:30:00,
2013-08-25 03:32:00,55.0,54.7,30.31,SSE,152,0.0,0.0,99,0.00,,SKC,0.00,VWS V14.01,2013-08-25 07:32:00,
2013-08-25 03:37:00,55.0,54.7,30.30,SSE,152,0.0,0.0,99,0.00,,SKC,0.00,VWS V14.01,2013-08-25 07:37:00,
2013-08-25 03:42:00,54.9,54.6,30.30,SSE,152,0.0,0.0,99,0.00,,SKC,0.00,VWS V14.01,2013-08-25 07:42:00,
2013-08-25 03:47:00,54.9,54.6,30.31,SSE,153,0.0,0.0,99,0.00,,SKC,0.00,VWS V14.01,2013-08-25 07:47:00,
2013-08-25 03:52:00,54.8,54.5,30.31,SSE,153,0.0,0.0,99,0.00,,SKC,0.00,VWS V14.01,2013-08-25 07:52:00,
2013-08-25 03:57:00,54.8,54.5,30.31,SSE,152,0.0,0.0,99,0.00,,SKC,0.00,VWS V14.01,2013-08-25 07:57:00,
2013-08-25 04:00:00,54.7,54.4,30.31,SSE,153,0.0,0.0,99,0.00,,SKC,0.00,VWS V14.01,2013-08-25 08:00:00,
2013-08-25 04:02:00,54.7,54.4,30.31,SSE,152,0.0,0.0,99,0.00,,SKC,0.00,VWS V14.01,2013-08-25 08:02:00,
2013-08-25 04:07:00,54.6,54.3,30.31,SSE,153,0.0,0.0,99,0.00,,SKC,0.00,VWS V14.01,2013-08-25 08:07:00,
2013-08-25 04:12:00,54.5,54.2,30.31,SSE,153,0.0,0.0,99,0.00,,SKC,0.00,VWS V14.01,2013-08-25 08:12:00,
2013-08-25 04:17:00,54.3,54.0,30.31,SSE,153,0.0,0.0,99,0.00,,SKC,0.00,VWS V14.01,2013-08-25 08:17:00,
2013-08-25 04:22:00,54.2,53.9,30.31,SSE,152,0.0,0.0,99,0.00,,SKC,0.00,VWS V14.01,2013-08-25 08:22:00,
2013-08-25 04:27:00,54.2,53.9,30.31,SSE,152,0.0,0.0,99,0.00,,SKC,0.00,VWS V14.01,2013-08-25 08:27:00,
2013-08-25 04:30:00,54.2,53.9,30.31,SSE,152,0.0,0.0,99,0.00,,SKC,0.00,VWS V14.01,2013-08-25 08:30:00,
2013-08-25 04:31:00,54.1,53.8,30.31,SSE,152,0.0,0.0,99,0.00,,SKC,0.00,VWS V14.01,2013-08-25 08:31:00,
2013-08-25 04:36:00,53.9,53.6,30.31,SSE,153,0.0,0.0,99,0.00,,SKC,0.00,VWS V14.01,2013-08-25 08:36:00,
2013-08-25 04:41:00,53.7,53.4,30.31,SSE,153,0.0,0.0,99,0.00,,SKC,0.00,VWS V14.01,2013-08-25 08:41:00,
2013-08-25 04:46:00,53.5,53.2,30.31,SSE,152,0.0,0.0,99,0.00,,SKC,0.00,VWS V14.01,2013-08-25 08:46:00,
2013-08-25 04:51:00,53.3,53.0,30.32,SSE,152,0.0,0.0,99,0.00,,SKC,0.00,VWS V14.01,2013-08-25 08:51:00,
2013-08-25 04:56:00,53.0,52.7,30.31,SSE,152,0.0,0.0,99,0.00,,SKC,0.00,VWS V14.01,2013-08-25 08:56:00,
2013-08-25 05:00:00,53.0,52.7,30.32,SSE,152,0.0,0.0,99,0.00,,SKC,0.00,VWS V14.01,2013-08-25 09:00:00,
2013-08-25 05:01:00,53.2,52.9,30.32,SSE,152,0.0,0.0,99,0.00,,SKC,0.00,VWS V14.01,2013-08-25 09:01:00,
2013-08-25 05:06:00,53.2,52.9,30.32,SSE,153,0.0,0.0,99,0.00,,SKC,0.00,VWS V14.01,2013-08-25 09:06:00,
2013-08-25 05:11:00,53.1,52.8,30.32,SSE,152,0.0,0.0,99,0.00,,SKC,0.00,VWS V14.01,2013-08-25 09:11:00,
2013-08-25 05:16:00,52.8,52.5,30.32,SSE,153,0.0,0.0,99,0.00,,SKC,0.00,VWS V14.01,2013-08-25 09:16:00,
2013-08-25 05:21:00,52.6,52.3,30.32,SSE,152,0.0,0.0,99,0.00,,SKC,0.00,VWS V14.01,2013-08-25 09:21:00,
2013-08-25 05:26:00,52.4,52.1,30.32,SSE,152,0.0,0.0,99,0.00,,SKC,0.00,VWS V14.01,2013-08-25 09:26:00,
2013-08-25 05:30:00,52.5,52.2,30.32,SSE,152,0.0,0.0,99,0.00,,SKC,0.00,VWS V14.01,2013-08-25 09:30:00,
2013-08-25 05:31:00,52.4,52.1,30.32,SSE,152,0.0,0.0,99,0.00,,SKC,0.00,VWS V14.01,2013-08-25 09:31:00,
2013-08-25 05:36:00,52.2,51.9,30.33,SSE,152,0.0,0.0,99,0.00,,SKC,0.00,VWS V14.01,2013-08-25 09:36:00,
2013-08-25 05:41:00,52.2,51.9,30.33,SSE,153,0.0,0.0,99,0.00,,SKC,0.00,VWS V14.01,2013-08-25 09:41:00,
2013-08-25 05:46:00,52.3,52.0,30.33,SSE,152,0.0,0.0,99,0.00,,SKC,0.00,VWS V14.01,2013-08-25 09:46:00,
2013-08-25 05:51:00,52.1,51.8,30.33,SSE,152,0.0,0.0,99,0.00,,SKC,0.00,VWS V14.01,2013-08-25 09:51:00,
2013-08-25 05:56:00,52.2,51.9,30.33,SSE,152,0.0,0.0,99,0.00,,SKC,0.00,VWS V14.01,2013-08-25 09:56:00,
2013-08-25 06:00:00,52.2,51.9,30.33,SSE,152,0.0,0.0,99,0.00,,SKC,0.00,VWS V14.01,2013-08-25 10:00:00,
2013-08-25 06:01:00,52.2,51.9,30.33,SSE,152,0.0,0.0,99,0.00,,SKC,0.00,VWS V14.01,2013-08-25 10:01:00,
2013-08-25 06:06:00,52.0,51.7,30.33,SSE,152,0.0,0.0,99,0.00,,SKC,0.00,VWS V14.01,2013-08-25 10:06:00,
2013-08-25 06:11:00,51.8,51.5,30.34,SSE,153,0.0,0.0,99,0.00,,SKC,0.00,VWS V14.01,2013-08-25 10:11:00,
2013-08-25 06:16:00,51.8,51.5,30.34,SSE,152,0.0,0.0,99,0.00,,SKC,0.00,VWS V14.01,2013-08-25 10:16:00,
2013-08-25 06:21:00,51.8,51.5,30.34,SSE,153,0.0,0.0,99,0.00,,SKC,0.00,VWS V14.01,2013-08-25 10:21:00,
2013-08-25 06:26:00,51.8,51.5,30.34,SSE,152,0.0,0.0,99,0.00,,SKC,0.00,VWS V14.01,2013-08-25 10:26:00,
2013-08-25 06:30:00,51.9,51.6,30.34,SSE,152,0.0,0.0,99,0.00,,SKC,0.00,VWS V14.01,2013-08-25 10:30:00,
2013-08-25 06:31:00,51.8,51.5,30.34,SSE,152,0.0,0.0,99,0.00,,SKC,0.00,VWS V14.01,2013-08-25 10:31:00,
2013-08-25 06:36:00,51.7,51.4,30.35,SSE,152,0.0,0.0,99,0.00,,SKC,0.00,VWS V14.01,2013-08-25 10:36:00,
2013-08-25 06:41:00,51.7,51.4,30.35,SSE,152,0.0,0.0,99,0.00,,SKC,0.00,VWS V14.01,2013-08-25 10:41:00,
2013-08-25 06:46:00,51.8,51.5,30.35,SSE,153,0.0,0.0,99,0.00,,SKC,0.00,VWS V14.01,2013-08-25 10:46:00,
2013-08-25 06:51:00,51.9,51.6,30.36,SSE,152,0.0,0.0,99,0.00,,SKC,0.00,VWS V14.01,2013-08-25 10:51:00,
2013-08-25 06:56:00,52.0,51.7,30.36,SSE,152,0.0,0.0,99,0.00,,SKC,0.00,VWS V14.01,2013-08-25 10:56:00,
2013-08-25 07:00:00,52.0,51.7,30.36,SSE,152,0.0,0.0,99,0.00,,SKC,0.00,VWS V14.01,2013-08-25 11:00:00,
2013-08-25 07:01:00,52.0,51.7,30.36,SSE,153,0.0,0.0,99,0.00,,SKC,0.00,VWS V14.01,2013-08-25 11:01:00,
2013-08-25 07:06:00,51.9,51.6,30.36,SSE,152,0.0,0.0,99,0.00,,SKC,0.00,VWS V14.01,2013-08-25 11:06:00,
2013-08-25 07:11:00,51.8,51.5,30.36,SSE,152,0.0,0.0,99,0.00,,SKC,0.00,VWS V14.01,2013-08-25 11:11:00,
2013-08-25 07:16:00,51.6,51.3,30.36,SSE,152,0.0,0.0,99,0.00,,SKC,0.00,VWS V14.01,2013-08-25 11:16:00,
2013-08-25 07:21:00,51.7,51.4,30.36,SSE,153,0.0,0.0,99,0.00,,SKC,0.00,VWS V14.01,2013-08-25 11:21:00,
2013-08-25 07:26:00,51.6,51.3,30.36,SSE,152,0.0,0.0,99,0.00,,SKC,0.00,VWS V14.01,2013-08-25 11:26:00,
2013-08-25 07:30:00,51.6,51.3,30.36,SSE,152,0.0,0.0,99,0.00,,SKC,0.00,VWS V14.01,2013-08-25 11:30:00,
2013-08-25 07:31:00,51.5,51.2,30.37,SSE,152,0.0,0.0,99,0.00,,SKC,0.00,VWS V14.01,2013-08-25 11:31:00,
2013-08-25 07:36:00,51.5,51.2,30.37,SSE,152,0.0,0.0,99,0.00,,SKC,0.00,VWS V14.01,2013-08-25 11:36:00,
2013-08-25 07:41:00,51.6,51.3,30.37,SSE,152,0.0,0.0,99,0.00,,SKC,0.00,VWS V14.01,2013-08-25 11:41:00,
2013-08-25 07:46:00,51.7,51.4,30.37,SSE,153,0.0,0.0,99,0.00,,SKC,0.00,VWS V14.01,2013-08-25 11:46:00,
2013-08-25 07:51:00,52.0,52.0,30.38,SSE,152,0.0,0.0,100,0.00,,SKC,0.00,VWS V14.01,2013-08-25 11:51:00,
2013-08-25 07:56:00,52.3,52.3,30.38,SSE,152,0.0,0.0,100,0.00,,SKC,0.00,VWS V14.01,2013-08-25 11:56:00,
2013-08-25 08:00:00,52.5,52.5,30.38,SSE,152,0.0,0.0,100,0.00,,SKC,0.00,VWS V14.01,2013-08-25 12:00:00,
2013-08-25 08:01:00,52.6,52.6,30.38,SSE,152,0.0,0.0,100,0.00,,SKC,0.00,VWS V14.01,2013-08-25 12:01:00,
2013-08-25 08:06:00,52.9,52.9,30.38,SSE,152,0.0,0.0,100,0.00,,SKC,0.00,VWS V14.01,2013-08-25 12:06:00,
2013-08-25 08:11:00,53.2,53.2,30.39,SSE,152,0.0,0.0,100,0.00,,SKC,0.00,VWS V14.01,2013-08-25 12:11:00,
2013-08-25 08:16:00,53.4,53.4,30.39,SSE,152,0.0,0.0,100,0.00,,SKC,0.00,VWS V14.01,2013-08-25 12:16:00,
2013-08-25 08:21:00,53.6,53.6,30.39,SSE,152,0.0,0.0,100,0.00,,SKC,0.00,VWS V14.01,2013-08-25 12:21:00,
2013-08-25 08:26:00,53.8,53.8,30.39,SSE,152,0.0,0.0,100,0.00,,SKC,0.00,VWS V14.01,2013-08-25 12:26:00,
2013-08-25 08:30:00,54.1,54.1,30.39,SSE,152,0.0,0.0,100,0.00,,SKC,0.00,VWS V14.01,2013-08-25 12:30:00,
2013-08-25 08:31:00,54.2,54.2,30.39,SSE,152,0.0,0.0,100,0.00,,SKC,0.00,VWS V14.01,2013-08-25 12:31:00,
2013-08-25 08:36:00,54.7,54.7,30.39,SSE,152,0.0,0.0,100,0.00,,SKC,0.00,VWS V14.01,2013-08-25 12:36:00,
2013-08-25 08:41:00,54.9,54.9,30.39,SSE,152,0.0,0.0,100,0.00,,SKC,0.00,VWS V14.01,2013-08-25 12:41:00,
2013-08-25 08:46:00,55.7,55.7,30.39,SSE,153,0.0,0.0,100,0.00,,SKC,0.00,VWS V14.01,2013-08-25 12:46:00,
2013-08-25 08:51:00,55.9,55.9,30.39,ESE,118,0.0,1.0,100,0.00,,SKC,0.00,VWS V14.01,2013-08-25 12:51:00,
2013-08-25 08:56:00,56.6,56.6,30.39,ESE,119,0.0,1.0,100,0.00,,SKC,0.00,VWS V14.01,2013-08-25 12:56:00,
2013-08-25 09:00:00,56.9,56.9,30.40,ESE,119,0.0,1.0,100,0.00,,SKC,0.00,VWS V14.01,2013-08-25 13:00:00,
2013-08-25 09:01:00,57.2,57.2,30.40,ESE,118,0.0,0.0,100,0.00,,SKC,0.00,VWS V14.01,2013-08-25 13:01:00,
2013-08-25 09:06:00,57.3,57.3,30.40,ESE,118,0.0,1.0,100,0.00,,SKC,0.00,VWS V14.01,2013-08-25 13:06:00,
2013-08-25 09:11:00,57.9,57.6,30.40,ESE,118,0.0,1.0,99,0.00,,SKC,0.00,VWS V14.01,2013-08-25 13:11:00,
2013-08-25 09:16:00,58.8,58.5,30.40,ESE,118,0.0,1.0,99,0.00,,SKC,0.00,VWS V14.01,2013-08-25 13:16:00,
2013-08-25 09:21:00,59.6,59.0,30.40,ESE,119,0.0,1.0,98,0.00,,SKC,0.00,VWS V14.01,2013-08-25 13:21:00,
2013-08-25 09:26:00,60.3,59.5,30.40,ESE,119,0.0,1.0,97,0.00,,SKC,0.00,VWS V14.01,2013-08-25 13:26:00,
2013-08-25 09:30:00,60.6,58.9,30.40,ESE,119,0.0,1.0,94,0.00,,SKC,0.00,VWS V14.01,2013-08-25 13:30:00,
2013-08-25 09:31:00,60.7,59.0,30.40,ESE,119,0.0,0.0,94,0.00,,SKC,0.00,VWS V14.01,2013-08-25 13:31:00,
2013-08-25 09:36:00,61.3,59.0,30.40,ESE,119,0.0,2.0,92,0.00,,SKC,0.00,VWS V14.01,2013-08-25 13:36:00,
2013-08-25 09:41:00,62.0,59.3,30.39,SSW,196,0.0,2.0,91,0.00,,SKC,0.00,VWS V14.01,2013-08-25 13:41:00,
2013-08-25 09:46:00,62.9,59.3,30.39,SSW,200,0.0,2.0,88,0.00,,SKC,0.00,VWS V14.01,2013-08-25 13:46:00,
2013-08-25 09:51:00,63.5,59.2,30.40,SW,224,0.0,2.0,86,0.00,,SKC,0.00,VWS V14.01,2013-08-25 13:51:00,
2013-08-25 09:56:00,64.2,59.3,30.39,SW,222,0.0,2.0,84,0.00,,SKC,0.00,VWS V14.01,2013-08-25 13:56:00,
2013-08-25 10:00:00,64.6,59.3,30.39,WSW,242,1.0,2.0,83,0.01,,SKC,0.01,VWS V14.01,2013-08-25 14:00:00,
2013-08-25 10:01:00,64.6,58.7,30.39,WSW,242,1.0,1.0,81,0.01,,SKC,0.01,VWS V14.01,2013-08-25 14:01:00,
2013-08-25 10:06:00,65.2,59.2,30.39,WSW,242,1.0,1.0,81,0.01,,SKC,0.01,VWS V14.01,2013-08-25 14:06:00,
2013-08-25 10:11:00,65.7,59.7,30.39,SW,236,0.0,1.0,81,0.01,,SKC,0.01,VWS V14.01,2013-08-25 14:11:00,
2013-08-25 10:16:00,66.2,59.2,30.39,SSW,197,2.0,2.0,78,0.01,,SKC,0.01,VWS V14.01,2013-08-25 14:16:00,
2013-08-25 10:21:00,66.4,59.3,30.39,SW,226,0.0,2.0,78,0.01,,SKC,0.01,VWS V14.01,2013-08-25 14:21:00,
2013-08-25 10:26:00,66.8,59.4,30.39,WSW,248,1.0,2.0,77,0.01,,SKC,0.01,VWS V14.01,2013-08-25 14:26:00,
2013-08-25 10:30:00,67.0,59.6,30.39,SSW,210,0.0,3.0,77,0.01,,SKC,0.01,VWS V14.01,2013-08-25 14:30:00,
2013-08-25 10:31:00,67.1,59.7,30.39,NE,53,0.0,1.0,77,0.01,,SKC,0.01,VWS V14.01,2013-08-25 14:31:00,
2013-08-25 10:36:00,67.5,60.4,30.39,SW,215,0.0,2.0,78,0.01,,SKC,0.01,VWS V14.01,2013-08-25 14:36:00,
2013-08-25 10:41:00,67.8,60.0,30.39,SSW,205,1.0,3.0,76,0.01,,SKC,0.01,VWS V14.01,2013-08-25 14:41:00,
2013-08-25 10:46:00,68.1,61.0,30.39,WSW,238,0.0,3.0,78,0.01,,SKC,0.01,VWS V14.01,2013-08-25 14:46:00,
2013-08-25 10:51:00,68.7,61.2,30.39,WSW,240,1.0,3.0,77,0.01,,SKC,0.01,VWS V14.01,2013-08-25 14:51:00,
2013-08-25 10:56:00,68.8,60.9,30.38,West,264,1.0,3.0,76,0.01,,SKC,0.01,VWS V14.01,2013-08-25 14:56:00,
2013-08-25 11:00:00,68.7,60.5,30.38,SSW,207,0.0,3.0,75,0.01,,SKC,0.01,VWS V14.01,2013-08-25 15:00:00,
2013-08-25 11:01:00,68.8,60.9,30.38,NE,36,2.0,2.0,76,0.00,,SKC,0.01,VWS V14.01,2013-08-25 15:01:00,
2013-08-25 11:06:00,69.0,60.8,30.39,WNW,287,3.0,3.0,75,0.00,,SKC,0.01,VWS V14.01,2013-08-25 15:06:00,
2013-08-25 11:11:00,69.3,60.7,30.38,SSW,203,1.0,3.0,74,0.00,,SKC,0.01,VWS V14.01,2013-08-25 15:11:00,
2013-08-25 11:16:00,69.8,61.5,30.38,East,81,0.0,4.0,75,0.00,,SKC,0.01,VWS V14.01,2013-08-25 15:16:00,
2013-08-25 11:21:00,70.3,61.6,30.38,North,351,0.0,4.0,74,0.00,,SKC,0.01,VWS V14.01,2013-08-25 15:21:00,
2013-08-25 11:26:00,70.7,61.2,30.38,SW,225,2.0,4.0,72,0.00,,SKC,0.01,VWS V14.01,2013-08-25 15:26:00,
2013-08-25 11:30:00,71.2,61.3,30.38,South,169,1.0,4.0,71,0.00,,SKC,0.01,VWS V14.01,2013-08-25 15:30:00,
2013-08-25 11:31:00,71.4,60.3,30.38,SW,215,0.0,2.0,68,0.00,,SKC,0.01,VWS V14.01,2013-08-25 15:31:00,
2013-08-25 11:36:00,71.9,60.8,30.37,NE,43,0.0,2.0,68,0.00,,SKC,0.01,VWS V14.01,2013-08-25 15:36:00,
2013-08-25 11:41:00,72.5,61.3,30.37,NNE,20,1.0,2.0,68,0.00,,SKC,0.01,VWS V14.01,2013-08-25 15:41:00,
2013-08-25 11:46:00,72.8,62.0,30.37,NE,53,1.0,5.0,69,0.00,,SKC,0.01,VWS V14.01,2013-08-25 15:46:00,
2013-08-25 11:51:00,72.7,60.7,30.37,West,262,0.0,5.0,66,0.00,,SKC,0.01,VWS V14.01,2013-08-25 15:51:00,
2013-08-25 11:56:00,73.3,60.8,30.37,South,185,0.0,5.0,65,0.00,,SKC,0.01,VWS V14.01,2013-08-25 15:56:00,
2013-08-25 12:00:00,73.9,61.4,30.36,ENE,60,2.0,5.0,65,0.00,,SKC,0.01,VWS V14.01,2013-08-25 16:00:00,
2013-08-25 12:01:00,74.0,61.1,30.36,ENE,73,0.0,2.0,64,0.00,,SKC,0.01,VWS V14.01,2013-08-25 16:01:00,
2013-08-25 12:06:00,74.0,60.6,30.36,WNW,300,0.0,2.0,63,0.00,,SKC,0.01,VWS V14.01,2013-08-25 16:06:00,
2013-08-25 12:11:00,73.9,60.5,30.36,SSW,210,3.0,4.0,63,0.00,,SKC,0.01,VWS V14.01,2013-08-25 16:11:00,
2013-08-25 12:16:00,73.8,60.0,30.36,SW,225,2.0,4.0,62,0.00,,SKC,0.01,VWS V14.01,2013-08-25 16:16:00,
2013-08-25 12:21:00,74.1,60.7,30.36,SSW,200,1.0,6.0,63,0.00,,SKC,0.01,VWS V14.01,2013-08-25 16:21:00,
2013-08-25 12:26:00,73.9,59.2,30.36,NW,314,0.0,6.0,60,0.00,,SKC,0.01,VWS V14.01,2013-08-25 16:26:00,
2013-08-25 12:30:00,74.0,60.6,30.36,NW,322,0.0,6.0,63,0.00,,SKC,0.01,VWS V14.01,2013-08-25 16:30:00,
2013-08-25 12:31:00,74.1,60.7,30.36,SW,235,1.0,1.0,63,0.00,,SKC,0.01,VWS V14.01,2013-08-25 16:31:00,
2013-08-25 12:36:00,74.5,61.1,30.36,SSW,205,3.0,4.0,63,0.00,,SKC,0.01,VWS V14.01,2013-08-25 16:36:00,
2013-08-25 12:41:00,74.8,61.4,30.36,NW,312,0.0,4.0,63,0.00,,SKC,0.01,VWS V14.01,2013-08-25 16:41:00,
2013-08-25 12:46:00,75.4,60.1,30.35,SSE,149,0.0,4.0,59,0.00,,SKC,0.01,VWS V14.01,2013-08-25 16:46:00,
2013-08-25 12:51:00,75.6,60.8,30.35,SW,230,2.0,5.0,60,0.00,,SKC,0.01,VWS V14.01,2013-08-25 16:51:00,
2013-08-25 12:56:00,75.4,60.6,30.35,West,263,1.0,5.0,60,0.00,,SKC,0.01,VWS V14.01,2013-08-25 16:56:00,
2013-08-25 13:00:00,75.5,59.7,30.35,WNW,284,2.0,5.0,58,0.00,,SKC,0.01,VWS V14.01,2013-08-25 17:00:00,
2013-08-25 13:01:00,75.3,60.9,30.35,West,262,1.0,2.0,61,0.00,,SKC,0.01,VWS V14.01,2013-08-25 17:01:00,
2013-08-25 13:06:00,74.7,59.0,30.35,WNW,298,2.0,5.0,58,0.00,,SKC,0.01,VWS V14.01,2013-08-25 17:06:00,
2013-08-25 13:11:00,74.8,60.9,30.34,SSW,205,0.0,5.0,62,0.00,,SKC,0.01,VWS V14.01,2013-08-25 17:11:00,
2013-08-25 13:16:00,74.8,59.5,30.34,ESE,120,1.0,5.0,59,0.00,,SKC,0.01,VWS V14.01,2013-08-25 17:16:00,
2013-08-25 13:21:00,75.0,60.7,30.34,WSW,252,1.0,7.0,61,0.00,,SKC,0.01,VWS V14.01,2013-08-25 17:21:00,
2013-08-25 13:26:00,75.0,61.6,30.34,NW,304,0.0,7.0,63,0.00,,SKC,0.01,VWS V14.01,2013-08-25 17:26:00,
2013-08-25 13:30:00,75.1,59.8,30.33,NE,37,2.0,7.0,59,0.00,,SKC,0.01,VWS V14.01,2013-08-25 17:30:00,
2013-08-25 13:31:00,75.1,59.3,30.33,NNE,22,2.0,2.0,58,0.00,,SKC,0.01,VWS V14.01,2013-08-25 17:31:00,
2013-08-25 13:36:00,75.9,62.0,30.33,East,95,0.0,2.0,62,0.00,,SKC,0.01,VWS V14.01,2013-08-25 17:36:00,
2013-08-25 13:41:00,76.7,59.3,30.32,ESE,108,0.0,4.0,55,0.00,,SKC,0.01,VWS V14.01,2013-08-25 17:41:00,
2013-08-25 13:46:00,77.7,63.7,30.32,SSW,203,0.0,4.0,62,0.00,,SKC,0.01,VWS V14.01,2013-08-25 17:46:00,
2013-08-25 13:51:00,78.0,61.0,30.32,West,280,1.0,6.0,56,0.00,,SKC,0.01,VWS V14.01,2013-08-25 17:51:00,
2013-08-25 13:56:00,77.4,62.9,30.32,WSW,255,2.0,7.0,61,0.00,,SKC,0.01,VWS V14.01,2013-08-25 17:56:00,
2013-08-25 14:00:00,76.9,58.5,30.32,SW,221,1.0,7.0,53,0.00,,SKC,0.01,VWS V14.01,2013-08-25 18:00:00,
2013-08-25 14:01:00,76.9,58.5,30.32,WNW,285,0.0,1.0,53,0.00,,SKC,0.01,VWS V14.01,2013-08-25 18:01:00,
2013-08-25 14:06:00,77.7,59.2,30.32,NE,44,3.0,4.0,53,0.00,,SKC,0.01,VWS V14.01,2013-08-25 18:06:00,
2013-08-25 14:11:00,78.1,61.1,30.32,SW,221,1.0,4.0,56,0.00,,SKC,0.01,VWS V14.01,2013-08-25 18:11:00,
2013-08-25 14:16:00,78.5,61.0,30.31,NE,39,1.0,4.0,55,0.00,,SKC,0.01,VWS V14.01,2013-08-25 18:16:00,
2013-08-25 14:21:00,78.3,60.8,30.31,WSW,242,0.0,4.0,55,0.00,,SKC,0.01,VWS V14.01,2013-08-25 18:21:00,
2013-08-25 14:26:00,79.1,61.0,30.31,SSE,165,1.0,4.0,54,0.00,,SKC,0.01,VWS V14.01,2013-08-25 18:26:00,
2013-08-25 14:30:00,78.8,58.6,30.32,South,190,1.0,4.0,50,0.00,,SKC,0.01,VWS V14.01,2013-08-25 18:30:00,
2013-08-25 14:31:00,78.4,58.2,30.32,NNW,339,2.0,2.0,50,0.00,,SKC,0.01,VWS V14.01,2013-08-25 18:31:00,
2013-08-25 14:36:00,77.0,59.6,30.32,WSW,239,2.0,4.0,55,0.00,,SKC,0.01,VWS V14.01,2013-08-25 18:36:00,
2013-08-25 14:41:00,76.9,61.0,30.32,South,174,0.0,4.0,58,0.00,,SKC,0.01,VWS V14.01,2013-08-25 18:41:00,
2013-08-25 14:46:00,76.9,59.5,30.31,SE,131,0.0,4.0,55,0.00,,SKC,0.01,VWS V14.01,2013-08-25 18:46:00,
2013-08-25 14:51:00,76.8,59.9,30.31,SSE,165,0.0,4.0,56,0.00,,SKC,0.01,VWS V14.01,2013-08-25 18:51:00,
2013-08-25 14:56:00,77.3,63.3,30.31,West,264,1.0,4.0,62,0.00,,SKC,0.01,VWS V14.01,2013-08-25 18:56:00,
2013-08-25 15:00:00,77.4,59.0,30.31,SSW,197,0.0,4.0,53,0.00,,SKC,0.01,VWS V14.01,2013-08-25 19:00:00,
2013-08-25 15:01:00,77.5,58.5,30.31,SSW,197,0.0,0.0,52,0.00,,SKC,0.01,VWS V14.01,2013-08-25 19:01:00,
2013-08-25 15:06:00,77.8,59.3,30.31,SW,221,3.0,3.0,53,0.00,,SKC,0.01,VWS V14.01,2013-08-25 19:06:00,
2013-08-25 15:11:00,78.3,60.8,30.30,SSW,200,2.0,3.0,55,0.00,,SKC,0.01,VWS V14.01,2013-08-25 19:11:00,
2013-08-25 15:16:00,79.1,60.0,30.30,SSE,149,0.0,4.0,52,0.00,,SKC,0.01,VWS V14.01,2013-08-25 19:16:00,
2013-08-25 15:21:00,79.3,60.7,30.29,South,172,0.0,4.0,53,0.00,,SKC,0.01,VWS V14.01,2013-08-25 19:21:00,
2013-08-25 15:26:00,79.7,61.1,30.29,WSW,243,0.0,4.0,53,0.00,,SKC,0.01,VWS V14.01,2013-08-25 19:26:00,
2013-08-25 15:30:00,80.2,61.0,30.29,WNW,297,1.0,4.0,52,0.00,,SKC,0.01,VWS V14.01,2013-08-25 19:30:00,
2013-08-25 15:31:00,80.2,61.0,30.29,SSW,200,3.0,3.0,52,0.00,,SKC,0.01,VWS V14.01,2013-08-25 19:31:00,
2013-08-25 15:36:00,80.0,60.3,30.29,NE,36,0.0,3.0,51,0.00,,SKC,0.01,VWS V14.01,2013-08-25 19:36:00,
2013-08-25 15:41:00,80.4,63.3,30.29,WSW,246,2.0,3.0,56,0.00,,SKC,0.01,VWS V14.01,2013-08-25 19:41:00,
2013-08-25 15:46:00,80.7,59.8,30.29,South,183,0.0,3.0,49,0.00,,SKC,0.01,VWS V14.01,2013-08-25 19:46:00,
2013-08-25 15:51:00,80.9,61.6,30.28,WSW,238,1.0,4.0,52,0.00,,SKC,0.01,VWS V14.01,2013-08-25 19:51:00,
2013-08-25 15:56:00,80.2,58.8,30.28,NW,310,2.0,5.0,48,0.00,,SKC,0.01,VWS V14.01,2013-08-25 19:56:00,
2013-08-25 16:00:00,79.3,59.1,30.28,WNW,282,2.0,5.0,50,0.00,,SKC,0.01,VWS V14.01,2013-08-25 20:00:00,
2013-08-25 16:01:00,79.2,59.0,30.28,WNW,285,1.0,4.0,50,0.00,,SKC,0.01,VWS V14.01,2013-08-25 20:01:00,
2013-08-25 16:06:00,79.3,60.7,30.28,South,191,2.0,4.0,53,0.00,,SKC,0.01,VWS V14.01,2013-08-25 20:06:00,
2013-08-25 16:11:00,80.0,60.3,30.28,SW,215,1.0,4.0,51,0.00,,SKC,0.01,VWS V14.01,2013-08-25 20:11:00,
2013-08-25 16:16:00,80.5,61.3,30.28,WSW,246,1.0,4.0,52,0.00,,SKC,0.01,VWS V14.01,2013-08-25 20:16:00,
2013-08-25 16:21:00,80.8,62.6,30.28,NE,53,1.0,5.0,54,0.00,,SKC,0.01,VWS V14.01,2013-08-25 20:21:00,
2013-08-25 16:26:00,80.7,63.6,30.28,WSW,243,1.0,5.0,56,0.00,,SKC,0.01,VWS V14.01,2013-08-25 20:26:00,
2013-08-25 16:30:00,80.2,60.5,30.28,South,185,4.0,5.0,51,0.00,,SKC,0.01,VWS V14.01,2013-08-25 20:30:00,
2013-08-25 16:31:00,80.1,60.4,30.28,SSE,160,2.0,4.0,51,0.00,,SKC,0.01,VWS V14.01,2013-08-25 20:31:00,
2013-08-25 16:36:00,79.4,60.3,30.28,SSW,195,0.0,4.0,52,0.00,,SKC,0.01,VWS V14.01,2013-08-25 20:36:00,
2013-08-25 16:41:00,78.7,61.2,30.28,SSE,166,0.0,4.0,55,0.00,,SKC,0.01,VWS V14.01,2013-08-25 20:41:00,
2013-08-25 16:45:00,78.6,62.1,30.28,South,169,0.0,4.0,57,0.00,,SKC,0.01,VWS V14.01,2013-08-25 20:45:00,
2013-08-25 16:50:00,79.0,62.0,30.28,SW,219,0.0,4.0,56,0.00,,SKC,0.01,VWS V14.01,2013-08-25 20:50:00,
2013-08-25 16:55:00,78.9,60.9,30.27,West,281,0.0,4.0,54,0.00,,SKC,0.01,VWS V14.01,2013-08-25 20:55:00,
2013-08-25 17:00:00,79.6,61.5,30.27,West,259,3.0,4.0,54,0.00,,SKC,0.01,VWS V14.01,2013-08-25 21:00:00,
2013-08-25 17:01:00,79.6,62.5,30.27,NNE,26,1.0,4.0,56,0.00,,SKC,0.01,VWS V14.01,2013-08-25 21:01:00,
2013-08-25 17:06:00,79.9,62.8,30.27,SSW,195,2.0,4.0,56,0.00,,SKC,0.01,VWS V14.01,2013-08-25 21:06:00,
2013-08-25 17:11:00,79.7,62.6,30.28,SW,226,0.0,6.0,56,0.00,,SKC,0.01,VWS V14.01,2013-08-25 21:11:00,
2013-08-25 17:16:00,80.0,63.4,30.28,SSW,203,1.0,6.0,57,0.00,,SKC,0.01,VWS V14.01,2013-08-25 21:16:00,
2013-08-25 17:21:00,80.2,64.1,30.28,SSW,207,1.0,6.0,58,0.00,,SKC,0.01,VWS V14.01,2013-08-25 21:21:00,
2013-08-25 17:26:00,80.3,62.7,30.28,WSW,253,2.0,6.0,55,0.00,,SKC,0.01,VWS V14.01,2013-08-25 21:26:00,
2013-08-25 17:30:00,80.3,63.2,30.28,SW,218,1.0,1.0,56,0.00,,SKC,0.01,VWS V14.01,2013-08-25 21:30:00,
2013-08-25 17:35:00,80.1,63.5,30.28,SW,215,0.0,2.0,57,0.00,,SKC,0.01,VWS V14.01,2013-08-25 21:35:00,
2013-08-25 17:40:00,80.0,62.4,30.27,SSW,203,0.0,3.0,55,0.00,,SKC,0.01,VWS V14.01,2013-08-25 21:40:00,
2013-08-25 17:45:00,80.7,63.0,30.28,SSW,203,1.0,3.0,55,0.00,,SKC,0.01,VWS V14.01,2013-08-25 21:45:00,
2013-08-25 17:50:00,80.5,63.4,30.27,WSW,239,1.0,3.0,56,0.00,,SKC,0.01,VWS V14.01,2013-08-25 21:50:00,
2013-08-25 17:55:00,80.5,61.3,30.27,SSW,207,0.0,3.0,52,0.00,,SKC,0.01,VWS V14.01,2013-08-25 21:55:00,
2013-08-25 18:00:00,80.3,60.5,30.27,SW,226,2.0,4.0,51,0.00,,SKC,0.01,VWS V14.01,2013-08-25 22:00:00,
2013-08-25 18:05:00,80.0,62.9,30.28,South,186,0.0,4.0,56,0.00,,SKC,0.01,VWS V14.01,2013-08-25 22:05:00,
2013-08-25 18:10:00,79.9,61.8,30.28,SW,219,2.0,5.0,54,0.00,,SKC,0.01,VWS V14.01,2013-08-25 22:10:00,
2013-08-25 18:15:00,80.0,60.8,30.28,SSE,167,2.0,5.0,52,0.00,,SKC,0.01,VWS V14.01,2013-08-25 22:15:00,
2013-08-25 18:20:00,79.9,61.8,30.28,WSW,240,0.0,5.0,54,0.00,,SKC,0.01,VWS V14.01,2013-08-25 22:20:00,
2013-08-25 18:25:00,79.9,62.3,30.28,SSW,193,2.0,5.0,55,0.00,,SKC,0.01,VWS V14.01,2013-08-25 22:25:00,
2013-08-25 18:30:00,79.1,61.0,30.28,SW,233,1.0,1.0,54,0.00,,SKC,0.01,VWS V14.01,2013-08-25 22:30:00,
2013-08-25 18:35:00,78.9,61.9,30.28,WSW,237,0.0,1.0,56,0.00,,SKC,0.01,VWS V14.01,2013-08-25 22:35:00,
2013-08-25 18:40:00,79.1,62.1,30.28,SSW,208,0.0,2.0,56,0.00,,SKC,0.01,VWS V14.01,2013-08-25 22:40:00,
2013-08-25 18:45:00,79.1,62.6,30.28,SSW,205,0.0,2.0,57,0.00,,SKC,0.01,VWS V14.01,2013-08-25 22:45:00,
2013-08-25 18:50:00,79.0,62.5,30.28,SSW,207,0.0,2.0,57,0.00,,SKC,0.01,VWS V14.01,2013-08-25 22:50:00,
2013-08-25 18:55:00,78.6,62.1,30.28,SW,233,1.0,2.0,57,0.00,,SKC,0.01,VWS V14.01,2013-08-25 22:55:00,
2013-08-25 19:00:00,77.9,61.5,30.28,SW,226,1.0,2.0,57,0.00,,SKC,0.01,VWS V14.01,2013-08-25 23:00:00,
2013-08-25 19:05:00,77.6,61.7,30.28,SSE,156,0.0,3.0,58,0.00,,SKC,0.01,VWS V14.01,2013-08-25 23:05:00,
2013-08-25 19:10:00,77.6,61.7,30.28,SSW,200,1.0,3.0,58,0.00,,SKC,0.01,VWS V14.01,2013-08-25 23:10:00,
2013-08-25 19:15:00,77.4,61.5,30.28,SSW,212,0.0,3.0,58,0.00,,SKC,0.01,VWS V14.01,2013-08-25 23:15:00,
2013-08-25 19:20:00,77.2,61.3,30.28,West,266,0.0,3.0,58,0.00,,SKC,0.01,VWS V14.01,2013-08-25 23:20:00,
2013-08-25 19:25:00,77.1,61.2,30.28,West,266,0.0,3.0,58,0.00,,SKC,0.01,VWS V14.01,2013-08-25 23:25:00,
2013-08-25 19:30:00,76.3,60.5,30.27,SW,218,0.0,1.0,58,0.00,,SKC,0.01,VWS V14.01,2013-08-25 23:30:00,
2013-08-25 19:35:00,75.6,60.3,30.27,SW,225,0.0,2.0,59,0.00,,SKC,0.01,VWS V14.01,2013-08-25 23:35:00,
2013-08-25 19:40:00,75.2,60.8,30.27,WSW,243,0.0,2.0,61,0.00,,SKC,0.01,VWS V14.01,2013-08-25 23:40:00,
2013-08-25 19:45:00,74.2,59.9,30.28,WSW,239,0.0,2.0,61,0.00,,SKC,0.01,VWS V14.01,2013-08-25 23:45:00,
2013-08-25 19:50:00,73.4,59.6,30.28,WSW,239,0.0,2.0,62,0.00,,SKC,0.01,VWS V14.01,2013-08-25 23:50:00,
2013-08-25 19:55:00,72.3,59.0,30.28,WSW,238,0.0,2.0,63,0.00,,SKC,0.01,VWS V14.01,2013-08-25 23:55:00,
2013-08-25 20:00:00,70.9,59.4,30.28,WSW,239,0.0,0.0,67,0.00,,SKC,0.01,VWS V14.01,2013-08-26 00:00:00,
2013-08-25 20:05:00,69.9,58.9,30.28,WSW,239,0.0,1.0,68,0.00,,SKC,0.01,VWS V14.01,2013-08-26 00:05:00,
2013-08-25 20:10:00,69.1,58.9,30.28,WSW,239,1.0,1.0,70,0.00,,SKC,0.01,VWS V14.01,2013-08-26 00:10:00,
2013-08-25 20:15:00,68.4,59.0,30.28,SW,219,0.0,1.0,72,0.00,,SKC,0.01,VWS V14.01,2013-08-26 00:15:00,
2013-08-25 20:20:00,67.8,58.8,30.28,SW,219,0.0,1.0,73,0.00,,SKC,0.01,VWS V14.01,2013-08-26 00:20:00,
2013-08-25 20:25:00,67.3,58.4,30.29,SW,219,0.0,1.0,73,0.00,,SKC,0.01,VWS V14.01,2013-08-26 00:25:00,
2013-08-25 20:30:00,66.9,58.3,30.29,SW,219,0.0,0.0,74,0.00,,SKC,0.01,VWS V14.01,2013-08-26 00:30:00,
2013-08-25 20:35:00,66.5,58.3,30.29,SW,219,0.0,0.0,75,0.00,,SKC,0.01,VWS V14.01,2013-08-26 00:35:00,
2013-08-25 20:40:00,66.1,58.3,30.29,SW,219,0.0,0.0,76,0.00,,SKC,0.01,VWS V14.01,2013-08-26 00:40:00,
2013-08-25 20:45:00,65.7,58.3,30.29,SW,219,0.0,1.0,77,0.00,,SKC,0.01,VWS V14.01,2013-08-26 00:45:00,
2013-08-25 20:50:00,65.4,58.4,30.29,SW,219,0.0,1.0,78,0.00,,SKC,0.01,VWS V14.01,2013-08-26 00:50:00,
2013-08-25 20:55:00,65.2,58.5,30.30,SW,219,0.0,1.0,79,0.00,,SKC,0.01,VWS V14.01,2013-08-26 00:55:00,
2013-08-25 21:00:00,64.9,58.2,30.30,SW,219,0.0,0.0,79,0.00,,SKC,0.01,VWS V14.01,2013-08-26 01:00:00,
2013-08-25 21:05:00,64.5,58.2,30.30,SW,220,0.0,0.0,80,0.00,,SKC,0.01,VWS V14.01,2013-08-26 01:05:00,
2013-08-25 21:10:00,64.2,57.9,30.30,SW,219,0.0,0.0,80,0.00,,SKC,0.01,VWS V14.01,2013-08-26 01:10:00,
2013-08-25 21:15:00,63.9,58.0,30.30,SW,219,0.0,0.0,81,0.00,,SKC,0.01,VWS V14.01,2013-08-26 01:15:00,
2013-08-25 21:20:00,63.7,57.8,30.31,SW,219,0.0,0.0,81,0.00,,SKC,0.01,VWS V14.01,2013-08-26 01:20:00,
2013-08-25 21:25:00,63.5,57.9,30.31,SW,219,0.0,0.0,82,0.00,,SKC,0.01,VWS V14.01,2013-08-26 01:25:00,
2013-08-25 21:30:00,63.3,58.1,30.31,SW,219,0.0,0.0,83,0.00,,SKC,0.01,VWS V14.01,2013-08-26 01:30:00,
2013-08-25 21:35:00,63.0,58.1,30.31,SW,220,0.0,0.0,84,0.00,,SKC,0.01,VWS V14.01,2013-08-26 01:35:00,
2013-08-25 21:40:00,62.7,58.1,30.32,SW,219,0.0,0.0,85,0.00,,SKC,0.01,VWS V14.01,2013-08-26 01:40:00,
2013-08-25 21:45:00,62.5,58.3,30.32,SW,219,0.0,0.0,86,0.00,,SKC,0.01,VWS V14.01,2013-08-26 01:45:00,
2013-08-25 21:50:00,62.2,58.0,30.32,SW,219,0.0,0.0,86,0.00,,SKC,0.01,VWS V14.01,2013-08-26 01:50:00,
2013-08-25 21:55:00,61.9,58.0,30.32,SW,219,0.0,0.0,87,0.00,,SKC,0.01,VWS V14.01,2013-08-26 01:55:00,
2013-08-25 22:00:00,61.6,58.0,30.32,SW,219,0.0,0.0,88,0.00,,SKC,0.01,VWS V14.01,2013-08-26 02:00:00,
2013-08-25 22:05:00,61.4,58.1,30.32,SW,219,0.0,0.0,89,0.00,,SKC,0.01,VWS V14.01,2013-08-26 02:05:00,
2013-08-25 22:10:00,61.2,58.2,30.32,SW,219,0.0,0.0,90,0.00,,SKC,0.01,VWS V14.01,2013-08-26 02:10:00,
2013-08-25 22:15:00,61.1,58.2,30.33,SW,220,0.0,0.0,90,0.00,,SKC,0.01,VWS V14.01,2013-08-26 02:15:00,
2013-08-25 22:20:00,61.0,58.0,30.32,SW,219,0.0,1.0,90,0.00,,SKC,0.01,VWS V14.01,2013-08-26 02:20:00,
2013-08-25 22:25:00,60.8,58.2,30.33,SW,220,0.0,1.0,91,0.00,,SKC,0.01,VWS V14.01,2013-08-26 02:25:00,
2013-08-25 22:30:00,60.8,58.2,30.33,SW,219,0.0,0.0,91,0.00,,SKC,0.01,VWS V14.01,2013-08-26 02:30:00,
2013-08-25 22:35:00,60.6,58.0,30.33,SW,219,0.0,0.0,91,0.00,,SKC,0.01,VWS V14.01,2013-08-26 02:35:00,
2013-08-25 22:40:00,60.3,57.7,30.33,SW,219,0.0,0.0,91,0.00,,SKC,0.01,VWS V14.01,2013-08-26 02:40:00,
2013-08-25 22:45:00,60.1,57.8,30.33,SW,219,0.0,0.0,92,0.00,,SKC,0.01,VWS V14.01,2013-08-26 02:45:00,
2013-08-25 22:50:00,59.9,57.6,30.34,SW,219,0.0,0.0,92,0.00,,SKC,0.01,VWS V14.01,2013-08-26 02:50:00,
2013-08-25 22:55:00,59.8,57.8,30.34,SW,220,0.0,0.0,93,0.00,,SKC,0.01,VWS V14.01,2013-08-26 02:55:00,
2013-08-25 23:00:00,59.7,57.7,30.33,SW,219,0.0,0.0,93,0.00,,SKC,0.01,VWS V14.01,2013-08-26 03:00:00,
2013-08-25 23:05:00,59.5,57.5,30.34,SW,219,0.0,0.0,93,0.00,,SKC,0.01,VWS V14.01,2013-08-26 03:05:00,
2013-08-25 23:10:00,59.2,57.2,30.34,SW,220,0.0,0.0,93,0.00,,SKC,0.01,VWS V14.01,2013-08-26 03:10:00,
2013-08-25 23:15:00,59.1,57.4,30.34,SW,219,0.0,0.0,94,0.00,,SKC,0.01,VWS V14.01,2013-08-26 03:15:00,
2013-08-25 23:20:00,59.0,57.3,30.34,SW,219,0.0,0.0,94,0.00,,SKC,0.01,VWS V14.01,2013-08-26 03:20:00,
2013-08-25 23:25:00,58.9,57.5,30.34,SW,219,0.0,0.0,95,0.00,,SKC,0.01,VWS V14.01,2013-08-26 03:25:00,
2013-08-25 23:30:00,58.8,57.4,30.34,SW,219,0.0,0.0,95,0.00,,SKC,0.01,VWS V14.01,2013-08-26 03:30:00,
2013-08-25 23:35:00,58.7,57.3,30.34,SW,219,0.0,0.0,95,0.00,,SKC,0.01,VWS V14.01,2013-08-26 03:35:00,
2013-08-25 23:40:00,58.5,57.1,30.34,SW,219,0.0,0.0,95,0.00,,SKC,0.01,VWS V14.01,2013-08-26 03:40:00,
2013-08-25 23:45:00,58.3,56.9,30.34,SW,219,0.0,0.0,95,0.00,,SKC,0.01,VWS V14.01,2013-08-26 03:45:00,
2013-08-25 23:50:00,58.4,57.3,30.34,SW,219,0.0,1.0,96,0.00,,SKC,0.01,VWS V14.01,2013-08-26 03:50:00,
2013-08-25 23:55:00,58.3,57.2,30.34,SW,220,0.0,1.0,96,0.00,,SKC,0.01,VWS V14.01,2013-08-26 03:55:00,